sensor_id;sensor_type;location;lat;lon;timestamp;P1;durP1;ratioP1;P2;durP2;ratioP2
37483;SDS011;23337;52.212;9.926;2024-03-23T00:54:16;6.87;;;2.60;;
37483;SDS011;23337;52.212;9.926;2024-03-23T00:56:42;9.73;;;3.00;;
37483;SDS011;23337;52.212;9.926;2024-03-23T00:59:08;7.73;;;3.07;;
37483;SDS011;23337;52.212;9.926;2024-03-23T01:01:34;6.50;;;3.27;;
37483;SDS011;23337;52.212;9.926;2024-03-23T01:04:00;6.60;;;3.07;;
37483;SDS011;23337;52.212;9.926;2024-03-23T01:06:26;7.30;;;2.83;;
37483;SDS011;23337;52.212;9.926;2024-03-23T01:08:52;7.10;;;2.70;;
37483;SDS011;23337;52.212;9.926;2024-03-23T01:11:17;9.80;;;3.97;;
37483;SDS011;23337;52.212;9.926;2024-03-23T01:13:43;9.63;;;3.23;;
37483;SDS011;23337;52.212;9.926;2024-03-23T01:16:09;10.17;;;2.97;;
37483;SDS011;23337;52.212;9.926;2024-03-23T01:18:35;10.07;;;3.03;;
37483;SDS011;23337;52.212;9.926;2024-03-23T01:21:01;8.43;;;3.40;;
37483;SDS011;23337;52.212;9.926;2024-03-23T01:23:27;9.27;;;3.23;;
37483;SDS011;23337;52.212;9.926;2024-03-23T01:25:53;6.00;;;3.07;;
37483;SDS011;23337;52.212;9.926;2024-03-23T01:28:20;6.93;;;3.40;;
37483;SDS011;23337;52.212;9.926;2024-03-23T01:30:46;6.80;;;3.77;;
37483;SDS011;23337;52.212;9.926;2024-03-23T01:33:12;9.23;;;3.77;;
37483;SDS011;23337;52.212;9.926;2024-03-23T01:35:38;8.20;;;3.80;;
37483;SDS011;23337;52.212;9.926;2024-03-23T01:38:04;7.67;;;2.97;;
37483;SDS011;23337;52.212;9.926;2024-03-23T01:40:30;9.20;;;3.97;;
37483;SDS011;23337;52.212;9.926;2024-03-23T01:45:23;7.40;;;2.57;;
37483;SDS011;23337;52.212;9.926;2024-03-23T01:47:52;7.33;;;2.97;;
37483;SDS011;23337;52.212;9.926;2024-03-23T01:50:19;9.30;;;3.57;;
37483;SDS011;23337;52.212;9.926;2024-03-23T01:52:45;6.57;;;3.03;;
37483;SDS011;23337;52.212;9.926;2024-03-23T01:55:11;9.80;;;3.87;;
37483;SDS011;23337;52.212;9.926;2024-03-23T01:57:37;8.13;;;3.63;;
37483;SDS011;23337;52.212;9.926;2024-03-23T02:00:03;10.40;;;3.00;;
37483;SDS011;23337;52.212;9.926;2024-03-23T02:02:30;8.57;;;3.03;;
37483;SDS011;23337;52.212;9.926;2024-03-23T02:04:56;11.00;;;3.70;;
37483;SDS011;23337;52.212;9.926;2024-03-23T02:07:21;11.53;;;4.07;;
37483;SDS011;23337;52.212;9.926;2024-03-23T02:09:48;6.73;;;3.37;;
37483;SDS011;23337;52.212;9.926;2024-03-23T02:12:15;7.90;;;2.60;;
37483;SDS011;23337;52.212;9.926;2024-03-23T02:14:41;7.53;;;3.63;;
37483;SDS011;23337;52.212;9.926;2024-03-23T02:17:08;6.10;;;2.63;;
37483;SDS011;23337;52.212;9.926;2024-03-23T02:19:34;8.97;;;3.33;;
37483;SDS011;23337;52.212;9.926;2024-03-23T02:22:00;9.03;;;2.93;;
37483;SDS011;23337;52.212;9.926;2024-03-23T02:24:26;8.40;;;3.23;;
37483;SDS011;23337;52.212;9.926;2024-03-23T02:26:52;6.30;;;2.97;;
37483;SDS011;23337;52.212;9.926;2024-03-23T02:29:18;8.97;;;2.87;;
37483;SDS011;23337;52.212;9.926;2024-03-23T02:31:45;8.27;;;3.07;;
37483;SDS011;23337;52.212;9.926;2024-03-23T02:34:11;7.10;;;3.07;;
37483;SDS011;23337;52.212;9.926;2024-03-23T02:36:37;6.83;;;3.00;;
37483;SDS011;23337;52.212;9.926;2024-03-23T02:39:03;6.00;;;2.50;;
37483;SDS011;23337;52.212;9.926;2024-03-23T02:41:29;6.20;;;2.73;;
37483;SDS011;23337;52.212;9.926;2024-03-23T02:43:54;9.47;;;3.73;;
37483;SDS011;23337;52.212;9.926;2024-03-23T02:46:21;6.97;;;3.10;;
37483;SDS011;23337;52.212;9.926;2024-03-23T02:48:48;7.57;;;3.30;;
37483;SDS011;23337;52.212;9.926;2024-03-23T02:51:14;8.10;;;2.40;;
37483;SDS011;23337;52.212;9.926;2024-03-23T02:53:40;8.47;;;3.20;;
37483;SDS011;23337;52.212;9.926;2024-03-23T02:56:06;9.47;;;3.03;;
37483;SDS011;23337;52.212;9.926;2024-03-23T02:58:33;8.17;;;3.23;;
37483;SDS011;23337;52.212;9.926;2024-03-23T03:00:59;10.63;;;3.53;;
37483;SDS011;23337;52.212;9.926;2024-03-23T03:03:25;11.60;;;3.23;;
37483;SDS011;23337;52.212;9.926;2024-03-23T03:05:55;5.90;;;2.83;;
37483;SDS011;23337;52.212;9.926;2024-03-23T03:08:21;5.70;;;3.13;;
37483;SDS011;23337;52.212;9.926;2024-03-23T03:10:47;6.27;;;3.17;;
37483;SDS011;23337;52.212;9.926;2024-03-23T03:13:13;7.53;;;3.33;;
37483;SDS011;23337;52.212;9.926;2024-03-23T03:15:40;5.93;;;3.43;;
37483;SDS011;23337;52.212;9.926;2024-03-23T03:18:06;8.97;;;3.50;;
37483;SDS011;23337;52.212;9.926;2024-03-23T03:20:32;8.23;;;3.73;;
37483;SDS011;23337;52.212;9.926;2024-03-23T03:22:59;8.83;;;3.30;;
37483;SDS011;23337;52.212;9.926;2024-03-23T03:25:25;8.50;;;3.27;;
37483;SDS011;23337;52.212;9.926;2024-03-23T03:27:51;6.53;;;3.27;;
37483;SDS011;23337;52.212;9.926;2024-03-23T03:30:17;7.63;;;3.80;;
37483;SDS011;23337;52.212;9.926;2024-03-23T03:32:43;11.60;;;3.40;;
37483;SDS011;23337;52.212;9.926;2024-03-23T03:35:09;8.97;;;3.43;;
37483;SDS011;23337;52.212;9.926;2024-03-23T03:37:35;8.07;;;3.10;;
37483;SDS011;23337;52.212;9.926;2024-03-23T03:40:01;9.37;;;4.40;;
37483;SDS011;23337;52.212;9.926;2024-03-23T03:42:28;8.47;;;3.93;;
37483;SDS011;23337;52.212;9.926;2024-03-23T03:44:54;7.77;;;4.03;;
37483;SDS011;23337;52.212;9.926;2024-03-23T03:47:20;11.93;;;4.43;;
37483;SDS011;23337;52.212;9.926;2024-03-23T03:49:47;6.50;;;4.13;;
37483;SDS011;23337;52.212;9.926;2024-03-23T03:52:13;6.63;;;3.83;;
37483;SDS011;23337;52.212;9.926;2024-03-23T03:54:39;10.73;;;4.53;;
37483;SDS011;23337;52.212;9.926;2024-03-23T03:57:05;6.93;;;4.40;;
37483;SDS011;23337;52.212;9.926;2024-03-23T03:59:31;9.73;;;5.33;;
37483;SDS011;23337;52.212;9.926;2024-03-23T04:01:57;6.13;;;3.80;;
37483;SDS011;23337;52.212;9.926;2024-03-23T04:04:22;11.10;;;4.03;;
37483;SDS011;23337;52.212;9.926;2024-03-23T04:06:48;10.83;;;4.53;;
37483;SDS011;23337;52.212;9.926;2024-03-23T04:09:14;8.10;;;3.90;;
37483;SDS011;23337;52.212;9.926;2024-03-23T04:11:40;7.97;;;4.07;;
37483;SDS011;23337;52.212;9.926;2024-03-23T04:14:06;7.60;;;4.00;;
37483;SDS011;23337;52.212;9.926;2024-03-23T04:16:36;8.80;;;3.97;;
37483;SDS011;23337;52.212;9.926;2024-03-23T04:19:02;7.50;;;3.70;;
37483;SDS011;23337;52.212;9.926;2024-03-23T04:21:29;7.30;;;3.30;;
37483;SDS011;23337;52.212;9.926;2024-03-23T04:23:55;6.97;;;3.87;;
37483;SDS011;23337;52.212;9.926;2024-03-23T04:26:21;10.33;;;3.60;;
37483;SDS011;23337;52.212;9.926;2024-03-23T04:28:47;9.80;;;3.93;;
37483;SDS011;23337;52.212;9.926;2024-03-23T04:31:13;8.20;;;2.97;;
37483;SDS011;23337;52.212;9.926;2024-03-23T04:33:38;7.77;;;3.60;;
37483;SDS011;23337;52.212;9.926;2024-03-23T04:36:05;10.03;;;3.40;;
37483;SDS011;23337;52.212;9.926;2024-03-23T04:38:32;6.87;;;2.97;;
37483;SDS011;23337;52.212;9.926;2024-03-23T04:40:58;9.03;;;3.70;;
37483;SDS011;23337;52.212;9.926;2024-03-23T04:43:25;4.50;;;3.10;;
37483;SDS011;23337;52.212;9.926;2024-03-23T04:45:51;6.17;;;2.57;;
37483;SDS011;23337;52.212;9.926;2024-03-23T04:48:19;5.47;;;2.33;;
37483;SDS011;23337;52.212;9.926;2024-03-23T04:50:45;8.60;;;3.30;;
37483;SDS011;23337;52.212;9.926;2024-03-23T04:53:11;9.60;;;2.87;;
37483;SDS011;23337;52.212;9.926;2024-03-23T04:55:37;7.97;;;2.63;;
37483;SDS011;23337;52.212;9.926;2024-03-23T04:58:03;8.37;;;2.13;;
37483;SDS011;23337;52.212;9.926;2024-03-23T05:00:29;8.30;;;2.40;;
37483;SDS011;23337;52.212;9.926;2024-03-23T05:02:55;10.50;;;2.73;;
37483;SDS011;23337;52.212;9.926;2024-03-23T05:05:21;7.47;;;2.40;;
37483;SDS011;23337;52.212;9.926;2024-03-23T05:07:47;8.13;;;2.27;;
37483;SDS011;23337;52.212;9.926;2024-03-23T05:10:13;8.70;;;2.50;;
37483;SDS011;23337;52.212;9.926;2024-03-23T05:12:39;5.83;;;2.00;;
37483;SDS011;23337;52.212;9.926;2024-03-23T05:15:05;7.23;;;2.47;;
37483;SDS011;23337;52.212;9.926;2024-03-23T05:17:34;12.53;;;2.97;;
37483;SDS011;23337;52.212;9.926;2024-03-23T05:20:02;8.37;;;2.73;;
37483;SDS011;23337;52.212;9.926;2024-03-23T05:22:28;7.20;;;2.70;;
37483;SDS011;23337;52.212;9.926;2024-03-23T05:24:55;5.30;;;2.50;;
37483;SDS011;23337;52.212;9.926;2024-03-23T05:27:21;8.60;;;2.47;;
37483;SDS011;23337;52.212;9.926;2024-03-23T05:29:48;7.80;;;2.77;;
37483;SDS011;23337;52.212;9.926;2024-03-23T05:32:14;7.43;;;3.07;;
37483;SDS011;23337;52.212;9.926;2024-03-23T05:34:40;8.33;;;3.10;;
37483;SDS011;23337;52.212;9.926;2024-03-23T05:37:06;7.77;;;2.83;;
37483;SDS011;23337;52.212;9.926;2024-03-23T05:39:32;8.17;;;3.00;;
37483;SDS011;23337;52.212;9.926;2024-03-23T05:41:58;7.87;;;3.07;;
37483;SDS011;23337;52.212;9.926;2024-03-23T05:44:24;9.97;;;2.87;;
37483;SDS011;23337;52.212;9.926;2024-03-23T05:46:50;5.97;;;2.97;;
37483;SDS011;23337;52.212;9.926;2024-03-23T05:49:16;8.50;;;2.47;;
37483;SDS011;23337;52.212;9.926;2024-03-23T05:51:43;7.70;;;2.30;;
37483;SDS011;23337;52.212;9.926;2024-03-23T05:54:09;8.53;;;3.87;;
37483;SDS011;23337;52.212;9.926;2024-03-23T05:56:35;7.47;;;2.37;;
37483;SDS011;23337;52.212;9.926;2024-03-23T05:59:01;5.07;;;2.20;;
37483;SDS011;23337;52.212;9.926;2024-03-23T06:01:28;6.07;;;1.40;;
37483;SDS011;23337;52.212;9.926;2024-03-23T06:03:57;7.27;;;2.53;;
37483;SDS011;23337;52.212;9.926;2024-03-23T06:06:23;9.20;;;1.70;;
37483;SDS011;23337;52.212;9.926;2024-03-23T06:08:49;4.37;;;1.40;;
37483;SDS011;23337;52.212;9.926;2024-03-23T06:11:15;8.40;;;2.10;;
37483;SDS011;23337;52.212;9.926;2024-03-23T06:13:41;11.73;;;2.47;;
37483;SDS011;23337;52.212;9.926;2024-03-23T06:16:07;8.70;;;2.37;;
37483;SDS011;23337;52.212;9.926;2024-03-23T06:18:33;6.60;;;1.77;;
37483;SDS011;23337;52.212;9.926;2024-03-23T06:20:59;6.73;;;2.10;;
37483;SDS011;23337;52.212;9.926;2024-03-23T06:23:25;4.47;;;1.57;;
37483;SDS011;23337;52.212;9.926;2024-03-23T06:25:51;10.23;;;1.60;;
37483;SDS011;23337;52.212;9.926;2024-03-23T06:28:17;7.60;;;1.57;;
37483;SDS011;23337;52.212;9.926;2024-03-23T06:30:43;4.30;;;1.87;;
37483;SDS011;23337;52.212;9.926;2024-03-23T06:33:09;5.47;;;1.43;;
37483;SDS011;23337;52.212;9.926;2024-03-23T06:35:35;5.23;;;1.60;;
37483;SDS011;23337;52.212;9.926;2024-03-23T06:38:01;7.00;;;1.50;;
37483;SDS011;23337;52.212;9.926;2024-03-23T06:40:27;6.57;;;1.57;;
37483;SDS011;23337;52.212;9.926;2024-03-23T06:42:53;6.30;;;1.50;;
37483;SDS011;23337;52.212;9.926;2024-03-23T06:45:19;7.83;;;1.93;;
37483;SDS011;23337;52.212;9.926;2024-03-23T06:47:48;5.80;;;2.07;;
37483;SDS011;23337;52.212;9.926;2024-03-23T06:50:14;7.27;;;2.00;;
37483;SDS011;23337;52.212;9.926;2024-03-23T06:52:40;10.13;;;2.30;;
37483;SDS011;23337;52.212;9.926;2024-03-23T06:55:07;8.97;;;2.30;;
37483;SDS011;23337;52.212;9.926;2024-03-23T06:57:33;9.17;;;1.77;;
37483;SDS011;23337;52.212;9.926;2024-03-23T06:59:59;6.97;;;1.77;;
37483;SDS011;23337;52.212;9.926;2024-03-23T07:02:25;14.73;;;3.80;;
37483;SDS011;23337;52.212;9.926;2024-03-23T07:04:51;7.97;;;2.00;;
37483;SDS011;23337;52.212;9.926;2024-03-23T07:07:17;6.97;;;2.13;;
37483;SDS011;23337;52.212;9.926;2024-03-23T07:09:43;8.43;;;1.80;;
37483;SDS011;23337;52.212;9.926;2024-03-23T07:12:09;4.47;;;1.80;;
37483;SDS011;23337;52.212;9.926;2024-03-23T07:14:35;4.90;;;1.77;;
37483;SDS011;23337;52.212;9.926;2024-03-23T07:17:01;7.50;;;2.10;;
37483;SDS011;23337;52.212;9.926;2024-03-23T07:19:27;9.37;;;1.77;;
37483;SDS011;23337;52.212;9.926;2024-03-23T07:21:53;8.17;;;2.53;;
37483;SDS011;23337;52.212;9.926;2024-03-23T07:24:19;6.73;;;1.90;;
37483;SDS011;23337;52.212;9.926;2024-03-23T07:26:45;4.17;;;1.53;;
37483;SDS011;23337;52.212;9.926;2024-03-23T07:29:12;10.03;;;2.10;;
37483;SDS011;23337;52.212;9.926;2024-03-23T07:31:38;7.67;;;2.03;;
37483;SDS011;23337;52.212;9.926;2024-03-23T07:34:04;9.40;;;2.50;;
37483;SDS011;23337;52.212;9.926;2024-03-23T07:36:30;9.77;;;2.40;;
37483;SDS011;23337;52.212;9.926;2024-03-23T07:38:56;6.07;;;1.60;;
37483;SDS011;23337;52.212;9.926;2024-03-23T07:41:22;6.90;;;2.27;;
37483;SDS011;23337;52.212;9.926;2024-03-23T07:43:48;8.80;;;2.00;;
37483;SDS011;23337;52.212;9.926;2024-03-23T07:46:15;7.93;;;2.53;;
37483;SDS011;23337;52.212;9.926;2024-03-23T07:48:42;8.70;;;2.70;;
37483;SDS011;23337;52.212;9.926;2024-03-23T07:51:09;6.80;;;2.33;;
37483;SDS011;23337;52.212;9.926;2024-03-23T07:53:35;9.60;;;2.83;;
37483;SDS011;23337;52.212;9.926;2024-03-23T07:56:05;9.27;;;2.60;;
37483;SDS011;23337;52.212;9.926;2024-03-23T07:58:32;10.20;;;2.83;;
37483;SDS011;23337;52.212;9.926;2024-03-23T08:01:07;10.43;;;3.77;;
37483;SDS011;23337;52.212;9.926;2024-03-23T08:03:34;6.47;;;2.20;;
37483;SDS011;23337;52.212;9.926;2024-03-23T08:06:19;5.97;;;2.03;;
37483;SDS011;23337;52.212;9.926;2024-03-23T08:08:47;11.40;;;2.57;;
37483;SDS011;23337;52.212;9.926;2024-03-23T08:11:14;5.13;;;2.40;;
37483;SDS011;23337;52.212;9.926;2024-03-23T08:13:41;8.43;;;2.77;;
37483;SDS011;23337;52.212;9.926;2024-03-23T08:16:07;10.13;;;2.83;;
37483;SDS011;23337;52.212;9.926;2024-03-23T08:18:39;6.87;;;3.00;;
37483;SDS011;23337;52.212;9.926;2024-03-23T08:21:05;11.53;;;4.20;;
37483;SDS011;23337;52.212;9.926;2024-03-23T08:23:32;7.93;;;3.60;;
37483;SDS011;23337;52.212;9.926;2024-03-23T08:25:59;13.17;;;3.53;;
37483;SDS011;23337;52.212;9.926;2024-03-23T08:28:25;10.93;;;4.17;;
37483;SDS011;23337;52.212;9.926;2024-03-23T08:30:52;10.53;;;4.70;;
37483;SDS011;23337;52.212;9.926;2024-03-23T08:33:18;10.47;;;4.80;;
37483;SDS011;23337;52.212;9.926;2024-03-23T08:35:53;10.33;;;4.43;;
37483;SDS011;23337;52.212;9.926;2024-03-23T08:38:20;12.23;;;4.93;;
37483;SDS011;23337;52.212;9.926;2024-03-23T08:40:46;11.47;;;4.67;;
37483;SDS011;23337;52.212;9.926;2024-03-23T08:43:12;14.20;;;5.17;;
37483;SDS011;23337;52.212;9.926;2024-03-23T08:45:38;14.10;;;5.10;;
37483;SDS011;23337;52.212;9.926;2024-03-23T08:48:04;16.63;;;5.37;;
37483;SDS011;23337;52.212;9.926;2024-03-23T08:50:30;12.73;;;6.13;;
37483;SDS011;23337;52.212;9.926;2024-03-23T08:52:56;17.07;;;7.97;;
37483;SDS011;23337;52.212;9.926;2024-03-23T08:55:22;14.00;;;7.13;;
37483;SDS011;23337;52.212;9.926;2024-03-23T08:57:48;21.83;;;8.10;;
37483;SDS011;23337;52.212;9.926;2024-03-23T09:00:14;14.50;;;7.57;;
37483;SDS011;23337;52.212;9.926;2024-03-23T09:02:40;16.13;;;6.47;;
37483;SDS011;23337;52.212;9.926;2024-03-23T09:05:06;13.53;;;6.10;;
37483;SDS011;23337;52.212;9.926;2024-03-23T09:07:32;17.97;;;5.83;;
37483;SDS011;23337;52.212;9.926;2024-03-23T09:09:58;15.07;;;5.23;;
37483;SDS011;23337;52.212;9.926;2024-03-23T09:12:24;11.07;;;5.50;;
37483;SDS011;23337;52.212;9.926;2024-03-23T09:14:50;14.47;;;6.47;;
37483;SDS011;23337;52.212;9.926;2024-03-23T09:17:18;18.50;;;5.37;;
37483;SDS011;23337;52.212;9.926;2024-03-23T09:19:44;18.43;;;5.93;;
37483;SDS011;23337;52.212;9.926;2024-03-23T09:22:10;13.03;;;5.37;;
37483;SDS011;23337;52.212;9.926;2024-03-23T09:24:36;17.70;;;5.03;;
37483;SDS011;23337;52.212;9.926;2024-03-23T09:27:02;12.57;;;5.27;;
37483;SDS011;23337;52.212;9.926;2024-03-23T09:29:29;14.70;;;5.07;;
37483;SDS011;23337;52.212;9.926;2024-03-23T09:31:55;12.67;;;5.37;;
37483;SDS011;23337;52.212;9.926;2024-03-23T09:34:20;15.63;;;4.50;;
37483;SDS011;23337;52.212;9.926;2024-03-23T09:36:47;13.47;;;4.57;;
37483;SDS011;23337;52.212;9.926;2024-03-23T09:39:13;12.73;;;4.57;;
37483;SDS011;23337;52.212;9.926;2024-03-23T09:41:39;13.13;;;4.53;;
37483;SDS011;23337;52.212;9.926;2024-03-23T09:44:06;13.07;;;4.97;;
37483;SDS011;23337;52.212;9.926;2024-03-23T09:46:32;10.07;;;4.67;;
37483;SDS011;23337;52.212;9.926;2024-03-23T09:49:01;12.17;;;3.97;;
37483;SDS011;23337;52.212;9.926;2024-03-23T09:51:29;11.97;;;4.17;;
37483;SDS011;23337;52.212;9.926;2024-03-23T09:53:55;13.23;;;5.63;;
37483;SDS011;23337;52.212;9.926;2024-03-23T09:56:21;11.60;;;5.07;;
37483;SDS011;23337;52.212;9.926;2024-03-23T09:58:48;14.03;;;4.57;;
37483;SDS011;23337;52.212;9.926;2024-03-23T10:01:14;16.60;;;4.30;;
37483;SDS011;23337;52.212;9.926;2024-03-23T10:03:44;14.90;;;5.03;;
37483;SDS011;23337;52.212;9.926;2024-03-23T10:06:11;5.43;;;3.03;;
37483;SDS011;23337;52.212;9.926;2024-03-23T10:08:37;13.47;;;4.27;;
37483;SDS011;23337;52.212;9.926;2024-03-23T10:11:13;10.27;;;4.00;;
37483;SDS011;23337;52.212;9.926;2024-03-23T10:13:41;11.43;;;3.90;;
37483;SDS011;23337;52.212;9.926;2024-03-23T10:16:07;10.10;;;3.50;;
37483;SDS011;23337;52.212;9.926;2024-03-23T10:18:37;11.93;;;3.93;;
37483;SDS011;23337;52.212;9.926;2024-03-23T10:23:33;11.90;;;3.63;;
37483;SDS011;23337;52.212;9.926;2024-03-23T10:26:16;9.40;;;3.57;;
37483;SDS011;23337;52.212;9.926;2024-03-23T10:31:30;11.80;;;3.53;;
37483;SDS011;23337;52.212;9.926;2024-03-23T10:33:56;9.03;;;3.17;;
37483;SDS011;23337;52.212;9.926;2024-03-23T10:36:22;10.20;;;3.63;;
37483;SDS011;23337;52.212;9.926;2024-03-23T10:38:52;7.57;;;3.53;;
37483;SDS011;23337;52.212;9.926;2024-03-23T10:41:18;9.23;;;3.97;;
37483;SDS011;23337;52.212;9.926;2024-03-23T10:43:45;10.67;;;3.53;;
37483;SDS011;23337;52.212;9.926;2024-03-23T10:46:11;12.00;;;4.23;;
37483;SDS011;23337;52.212;9.926;2024-03-23T10:48:38;8.67;;;2.87;;
37483;SDS011;23337;52.212;9.926;2024-03-23T10:51:05;16.17;;;5.10;;
37483;SDS011;23337;52.212;9.926;2024-03-23T10:53:32;9.40;;;4.03;;
37483;SDS011;23337;52.212;9.926;2024-03-23T10:55:59;9.33;;;3.43;;
37483;SDS011;23337;52.212;9.926;2024-03-23T10:58:30;2.80;;;1.23;;
37483;SDS011;23337;52.212;9.926;2024-03-23T11:00:57;2.43;;;0.97;;
37483;SDS011;23337;52.212;9.926;2024-03-23T11:03:32;2.27;;;1.20;;
37483;SDS011;23337;52.212;9.926;2024-03-23T11:05:59;2.83;;;1.10;;
37483;SDS011;23337;52.212;9.926;2024-03-23T11:08:38;3.83;;;1.10;;
37483;SDS011;23337;52.212;9.926;2024-03-23T11:11:17;2.50;;;0.93;;
37483;SDS011;23337;52.212;9.926;2024-03-23T11:13:48;3.13;;;1.40;;
37483;SDS011;23337;52.212;9.926;2024-03-23T11:18:40;3.80;;;1.57;;
37483;SDS011;23337;52.212;9.926;2024-03-23T11:21:07;5.17;;;1.63;;
37483;SDS011;23337;52.212;9.926;2024-03-23T11:23:33;5.13;;;2.07;;
37483;SDS011;23337;52.212;9.926;2024-03-23T11:25:59;4.33;;;2.23;;
37483;SDS011;23337;52.212;9.926;2024-03-23T11:28:25;6.67;;;2.60;;
37483;SDS011;23337;52.212;9.926;2024-03-23T11:30:51;7.13;;;3.10;;
37483;SDS011;23337;52.212;9.926;2024-03-23T11:33:17;6.43;;;2.83;;
37483;SDS011;23337;52.212;9.926;2024-03-23T11:35:43;5.43;;;2.93;;
37483;SDS011;23337;52.212;9.926;2024-03-23T11:40:36;6.43;;;2.60;;
37483;SDS011;23337;52.212;9.926;2024-03-23T11:43:03;6.70;;;1.87;;
37483;SDS011;23337;52.212;9.926;2024-03-23T11:45:33;8.50;;;3.67;;
37483;SDS011;23337;52.212;9.926;2024-03-23T11:50:29;5.37;;;2.33;;
37483;SDS011;23337;52.212;9.926;2024-03-23T11:53:12;5.90;;;2.23;;
37483;SDS011;23337;52.212;9.926;2024-03-23T11:55:45;6.57;;;1.77;;
37483;SDS011;23337;52.212;9.926;2024-03-23T11:58:12;5.67;;;2.27;;
37483;SDS011;23337;52.212;9.926;2024-03-23T12:00:38;5.83;;;2.30;;
37483;SDS011;23337;52.212;9.926;2024-03-23T12:03:04;4.67;;;2.27;;
37483;SDS011;23337;52.212;9.926;2024-03-23T12:05:31;5.60;;;2.53;;
37483;SDS011;23337;52.212;9.926;2024-03-23T12:10:46;4.53;;;2.47;;
37483;SDS011;23337;52.212;9.926;2024-03-23T12:13:14;4.13;;;1.83;;
37483;SDS011;23337;52.212;9.926;2024-03-23T12:15:42;6.90;;;2.57;;
37483;SDS011;23337;52.212;9.926;2024-03-23T12:18:08;6.27;;;2.63;;
37483;SDS011;23337;52.212;9.926;2024-03-23T12:20:35;9.33;;;2.77;;
37483;SDS011;23337;52.212;9.926;2024-03-23T12:23:06;5.77;;;2.57;;
37483;SDS011;23337;52.212;9.926;2024-03-23T12:25:32;7.70;;;2.70;;
37483;SDS011;23337;52.212;9.926;2024-03-23T12:27:59;3.80;;;1.90;;
37483;SDS011;23337;52.212;9.926;2024-03-23T12:30:25;3.87;;;1.63;;
37483;SDS011;23337;52.212;9.926;2024-03-23T12:32:51;4.60;;;1.63;;
37483;SDS011;23337;52.212;9.926;2024-03-23T12:35:17;3.80;;;1.30;;
37483;SDS011;23337;52.212;9.926;2024-03-23T12:37:43;4.17;;;1.90;;
37483;SDS011;23337;52.212;9.926;2024-03-23T12:40:09;5.20;;;2.00;;
37483;SDS011;23337;52.212;9.926;2024-03-23T12:42:36;4.10;;;1.67;;
37483;SDS011;23337;52.212;9.926;2024-03-23T12:45:02;5.03;;;1.90;;
37483;SDS011;23337;52.212;9.926;2024-03-23T12:47:30;3.67;;;1.90;;
37483;SDS011;23337;52.212;9.926;2024-03-23T12:49:56;2.43;;;1.93;;
37483;SDS011;23337;52.212;9.926;2024-03-23T12:52:22;4.30;;;1.93;;
37483;SDS011;23337;52.212;9.926;2024-03-23T12:54:53;4.27;;;2.00;;
37483;SDS011;23337;52.212;9.926;2024-03-23T12:57:19;4.13;;;2.00;;
37483;SDS011;23337;52.212;9.926;2024-03-23T12:59:45;2.83;;;1.73;;
37483;SDS011;23337;52.212;9.926;2024-03-23T13:02:15;3.87;;;1.30;;
37483;SDS011;23337;52.212;9.926;2024-03-23T13:04:41;2.27;;;1.67;;
37483;SDS011;23337;52.212;9.926;2024-03-23T13:07:07;1.60;;;0.70;;
37483;SDS011;23337;52.212;9.926;2024-03-23T13:09:33;1.03;;;0.90;;
37483;SDS011;23337;52.212;9.926;2024-03-23T13:11:59;2.10;;;1.53;;
37483;SDS011;23337;52.212;9.926;2024-03-23T13:14:25;2.50;;;1.43;;
37483;SDS011;23337;52.212;9.926;2024-03-23T13:16:51;2.10;;;0.80;;
37483;SDS011;23337;52.212;9.926;2024-03-23T13:19:17;1.30;;;0.60;;
37483;SDS011;23337;52.212;9.926;2024-03-23T13:21:44;0.50;;;0.40;;
37483;SDS011;23337;52.212;9.926;2024-03-23T13:24:10;1.13;;;0.70;;
37483;SDS011;23337;52.212;9.926;2024-03-23T13:26:36;1.50;;;0.70;;
37483;SDS011;23337;52.212;9.926;2024-03-23T13:29:02;2.20;;;0.73;;
37483;SDS011;23337;52.212;9.926;2024-03-23T13:31:28;1.03;;;0.60;;
37483;SDS011;23337;52.212;9.926;2024-03-23T13:33:54;2.90;;;0.80;;
37483;SDS011;23337;52.212;9.926;2024-03-23T13:36:20;1.83;;;0.80;;
37483;SDS011;23337;52.212;9.926;2024-03-23T13:38:46;2.33;;;0.90;;
37483;SDS011;23337;52.212;9.926;2024-03-23T13:41:12;2.53;;;0.97;;
37483;SDS011;23337;52.212;9.926;2024-03-23T13:43:38;3.03;;;0.93;;
37483;SDS011;23337;52.212;9.926;2024-03-23T13:46:05;3.00;;;1.07;;
37483;SDS011;23337;52.212;9.926;2024-03-23T13:48:31;2.27;;;1.30;;
37483;SDS011;23337;52.212;9.926;2024-03-23T13:51:01;1.90;;;0.73;;
37483;SDS011;23337;52.212;9.926;2024-03-23T13:53:27;2.23;;;1.40;;
37483;SDS011;23337;52.212;9.926;2024-03-23T13:55:53;3.00;;;1.67;;
37483;SDS011;23337;52.212;9.926;2024-03-23T13:58:20;4.23;;;1.63;;
37483;SDS011;23337;52.212;9.926;2024-03-23T14:00:46;3.50;;;1.07;;
37483;SDS011;23337;52.212;9.926;2024-03-23T14:03:12;3.47;;;1.87;;
37483;SDS011;23337;52.212;9.926;2024-03-23T14:05:39;2.70;;;1.50;;
37483;SDS011;23337;52.212;9.926;2024-03-23T14:08:08;4.23;;;2.30;;
37483;SDS011;23337;52.212;9.926;2024-03-23T14:10:34;4.13;;;1.50;;
37483;SDS011;23337;52.212;9.926;2024-03-23T14:13:03;3.73;;;3.23;;
37483;SDS011;23337;52.212;9.926;2024-03-23T14:15:29;3.83;;;2.03;;
37483;SDS011;23337;52.212;9.926;2024-03-23T14:17:56;4.70;;;1.80;;
37483;SDS011;23337;52.212;9.926;2024-03-23T14:20:22;2.50;;;1.90;;
37483;SDS011;23337;52.212;9.926;2024-03-23T14:22:51;5.33;;;2.30;;
37483;SDS011;23337;52.212;9.926;2024-03-23T14:25:17;8.00;;;3.23;;
37483;SDS011;23337;52.212;9.926;2024-03-23T14:27:44;2.87;;;1.70;;
37483;SDS011;23337;52.212;9.926;2024-03-23T14:30:10;3.37;;;1.60;;
37483;SDS011;23337;52.212;9.926;2024-03-23T14:32:37;2.43;;;1.70;;
37483;SDS011;23337;52.212;9.926;2024-03-23T14:35:03;4.80;;;2.33;;
37483;SDS011;23337;52.212;9.926;2024-03-23T14:37:30;2.60;;;1.20;;
37483;SDS011;23337;52.212;9.926;2024-03-23T14:39:56;3.77;;;2.30;;
37483;SDS011;23337;52.212;9.926;2024-03-23T14:42:23;2.30;;;1.50;;
37483;SDS011;23337;52.212;9.926;2024-03-23T14:44:49;1.53;;;0.97;;
37483;SDS011;23337;52.212;9.926;2024-03-23T14:47:15;3.37;;;1.10;;
37483;SDS011;23337;52.212;9.926;2024-03-23T14:49:42;1.07;;;0.37;;
37483;SDS011;23337;52.212;9.926;2024-03-23T14:52:12;2.23;;;0.60;;
37483;SDS011;23337;52.212;9.926;2024-03-23T14:54:38;3.00;;;0.90;;
37483;SDS011;23337;52.212;9.926;2024-03-23T14:57:04;1.80;;;0.90;;
37483;SDS011;23337;52.212;9.926;2024-03-23T14:59:31;1.73;;;0.90;;
37483;SDS011;23337;52.212;9.926;2024-03-23T15:01:57;4.00;;;2.00;;
37483;SDS011;23337;52.212;9.926;2024-03-23T15:04:23;3.33;;;1.90;;
37483;SDS011;23337;52.212;9.926;2024-03-23T15:06:49;1.23;;;1.00;;
37483;SDS011;23337;52.212;9.926;2024-03-23T15:09:15;0.83;;;0.53;;
37483;SDS011;23337;52.212;9.926;2024-03-23T15:11:42;1.03;;;0.60;;
37483;SDS011;23337;52.212;9.926;2024-03-23T15:14:08;3.63;;;0.83;;
37483;SDS011;23337;52.212;9.926;2024-03-23T15:16:34;1.60;;;0.80;;
37483;SDS011;23337;52.212;9.926;2024-03-23T15:19:00;2.43;;;1.00;;
37483;SDS011;23337;52.212;9.926;2024-03-23T15:21:26;3.13;;;2.00;;
37483;SDS011;23337;52.212;9.926;2024-03-23T15:23:52;3.57;;;1.10;;
37483;SDS011;23337;52.212;9.926;2024-03-23T15:26:18;2.33;;;1.10;;
37483;SDS011;23337;52.212;9.926;2024-03-23T15:28:47;2.33;;;1.27;;
37483;SDS011;23337;52.212;9.926;2024-03-23T15:31:23;2.67;;;0.87;;
37483;SDS011;23337;52.212;9.926;2024-03-23T15:33:49;2.03;;;1.00;;
37483;SDS011;23337;52.212;9.926;2024-03-23T15:36:15;1.50;;;0.57;;
37483;SDS011;23337;52.212;9.926;2024-03-23T15:38:42;1.20;;;1.00;;
37483;SDS011;23337;52.212;9.926;2024-03-23T15:41:08;2.43;;;1.00;;
37483;SDS011;23337;52.212;9.926;2024-03-23T15:43:34;3.33;;;1.20;;
37483;SDS011;23337;52.212;9.926;2024-03-23T15:46:01;3.03;;;1.80;;
37483;SDS011;23337;52.212;9.926;2024-03-23T15:48:27;1.90;;;1.50;;
37483;SDS011;23337;52.212;9.926;2024-03-23T15:50:54;3.57;;;1.67;;
37483;SDS011;23337;52.212;9.926;2024-03-23T15:53:20;7.27;;;3.53;;